createdAt,value
2019-04-26T00:00:41.300Z,69.76
2019-04-26T00:03:10.314Z,69.93
2019-04-26T00:05:37.832Z,70.27
2019-04-26T00:08:05.890Z,70.05
2019-04-26T00:10:41.989Z,69.72
2019-04-26T00:16:26.160Z,69.48
2019-04-26T00:18:52.789Z,69.22
2019-04-26T00:21:19.412Z,69.16
2019-04-26T00:23:46.369Z,68.89
2019-04-26T00:26:13.533Z,68.94
2019-04-26T00:28:40.205Z,69.03
2019-04-26T00:31:06.830Z,69.06
2019-04-26T00:33:35.243Z,69.11
2019-04-26T00:36:01.876Z,68.98
2019-04-26T00:38:28.745Z,69.13
2019-04-26T00:40:55.622Z,69.11
2019-04-26T00:43:23.103Z,69.37
2019-04-26T00:45:51.311Z,68.84
2019-04-26T00:48:23.063Z,68.44
2019-04-26T00:50:51.798Z,68.64
2019-04-26T00:53:19.603Z,68.52
2019-04-26T00:55:47.791Z,68.89
2019-04-26T00:58:16.322Z,69.10
2019-04-26T01:00:43.141Z,69.11
2019-04-26T01:03:09.871Z,69.15
2019-04-26T01:05:37.980Z,69.60
2019-04-26T01:08:04.583Z,69.54
2019-04-26T01:10:31.248Z,69.45
2019-04-26T01:12:57.870Z,69.49
2019-04-26T01:15:24.796Z,69.96
2019-04-26T01:17:51.629Z,70.40
2019-04-26T01:20:22.916Z,70.46
2019-04-26T01:22:52.865Z,70.81
2019-04-26T01:25:50.425Z,71.00
2019-04-26T01:28:26.772Z,71.24
2019-04-26T01:30:53.572Z,72.10
2019-04-26T01:33:21.956Z,72.93
2019-04-26T01:35:52.199Z,72.78
2019-04-26T01:38:20.726Z,72.30
2019-04-26T01:40:49.938Z,72.26
2019-04-26T01:43:20.054Z,71.89
2019-04-26T01:45:52.756Z,71.74
2019-04-26T01:48:46.957Z,71.70
2019-04-26T01:51:21.294Z,71.40
2019-04-26T01:53:50.914Z,71.04
2019-04-26T01:56:22.286Z,71.27
2019-04-26T01:58:50.198Z,71.10
2019-04-26T02:01:18.886Z,71.18
2019-04-26T02:03:46.826Z,70.92
2019-04-26T02:06:24.910Z,71.22
2019-04-26T02:08:42.079Z,71.12
2019-04-26T02:11:08.741Z,71.39
2019-04-26T02:13:35.317Z,71.49
2019-04-26T02:16:01.960Z,71.55
2019-04-26T02:18:29.487Z,71.25
2019-04-26T02:21:12.701Z,71.37
2019-04-26T02:23:47.155Z,72.05
2019-04-26T02:26:34.919Z,72.52
2019-04-26T02:29:05.222Z,73.12
2019-04-26T02:31:33.715Z,73.69
2019-04-26T02:34:02.309Z,73.74
2019-04-26T02:36:51.676Z,74.02
2019-04-26T02:39:04.479Z,73.98
2019-04-26T02:41:33.915Z,73.64
2019-04-26T02:44:05.076Z,73.52
2019-04-26T02:46:48.847Z,73.78
2019-04-26T02:49:21.028Z,74.21
2019-04-26T02:52:00.256Z,73.81
2019-04-26T02:54:47.836Z,73.55
2019-04-26T02:57:18.128Z,73.40
2019-04-26T02:59:47.580Z,73.33
2019-04-26T03:02:18.040Z,73.02
2019-04-26T03:04:47.924Z,73.30
2019-04-26T03:07:20.896Z,73.16
2019-04-26T03:09:50.276Z,73.77
2019-04-26T03:12:19.565Z,73.90
2019-04-26T03:14:54.541Z,73.98
2019-04-26T03:17:37.317Z,73.87
2019-04-26T03:20:16.379Z,73.83
2019-04-26T03:22:49.618Z,74.26
2019-04-26T03:25:45.244Z,74.62
2019-04-26T03:28:37.616Z,74.63
2019-04-26T03:31:07.668Z,74.29
2019-04-26T03:33:54.393Z,74.30
2019-04-26T03:36:50.132Z,74.56
2019-04-26T03:39:30.661Z,74.60
2019-04-26T03:42:19.532Z,74.48
2019-04-26T03:44:52.767Z,74.56
2019-04-26T03:47:23.017Z,74.28
2019-04-26T03:50:08.123Z,73.91
2019-04-26T03:52:45.605Z,73.83
2019-04-26T03:55:18.861Z,74.37
2019-04-26T03:57:53.672Z,73.96
2019-04-26T04:00:25.521Z,74.03
2019-04-26T04:03:06.598Z,74.24
2019-04-26T04:05:39.656Z,74.16
2019-04-26T04:08:09.754Z,73.97
2019-04-26T04:10:44.139Z,74.75
2019-04-26T04:13:40.870Z,74.39
2019-04-26T04:16:25.346Z,75.37
2019-04-26T04:18:55.613Z,74.75
2019-04-26T04:21:46.111Z,74.80
2019-04-26T04:24:16.422Z,75.51
2019-04-26T04:27:01.729Z,75.50
2019-04-26T04:29:46.274Z,75.84
2019-04-26T04:32:17.198Z,75.47
2019-04-26T04:34:48.205Z,75.79
2019-04-26T04:37:17.669Z,76.20
2019-04-26T04:39:49.839Z,76.12
2019-04-26T04:42:28.000Z,76.17
2019-04-26T04:45:31.991Z,76.77
2019-04-26T04:48:19.124Z,77.05
2019-04-26T04:50:55.547Z,76.45
2019-04-26T04:53:25.797Z,76.54
2019-04-26T04:55:59.418Z,76.87
2019-04-26T04:58:35.487Z,76.68
2019-04-26T05:01:32.005Z,76.58
2019-04-26T05:04:12.759Z,76.40
2019-04-26T05:07:05.921Z,76.76
2019-04-26T05:09:56.841Z,76.62
2019-04-26T05:12:33.140Z,76.35
2019-04-26T05:15:25.019Z,75.95
2019-04-26T05:18:01.324Z,76.69
2019-04-26T05:20:41.707Z,76.59
2019-04-26T05:23:31.902Z,75.98
2019-04-26T05:26:36.490Z,75.64
2019-04-26T05:29:30.036Z,75.46
2019-04-26T05:32:15.624Z,74.34
2019-04-26T05:35:05.311Z,74.90
2019-04-26T05:37:41.419Z,74.00
2019-04-26T05:40:14.669Z,73.53
2019-04-26T05:43:26.153Z,73.44
2019-04-26T05:46:24.130Z,73.72
2019-04-26T05:49:02.263Z,73.48
2019-04-26T05:52:00.534Z,73.36
2019-04-26T05:54:58.284Z,72.70
2019-04-26T05:57:54.394Z,74.31
2019-04-26T06:00:35.630Z,74.54
2019-04-26T06:03:25.406Z,74.11
2019-04-26T06:06:23.390Z,73.52
2019-04-26T06:08:59.672Z,73.23
2019-04-26T06:11:34.647Z,73.54
2019-04-26T06:14:44.635Z,72.30
2019-04-26T06:17:22.695Z,72.27
2019-04-26T06:20:21.952Z,71.85
2019-04-26T06:23:02.083Z,71.74
2019-04-26T06:26:02.670Z,70.77
2019-04-26T06:28:41.791Z,70.69
2019-04-26T06:31:11.768Z,69.49
2019-04-26T06:33:52.093Z,68.18
2019-04-26T06:36:24.446Z,67.73
2019-04-26T06:39:11.372Z,67.47
2019-04-26T06:41:58.517Z,68.23
2019-04-26T06:44:33.348Z,67.39
2019-04-26T06:47:20.163Z,66.32
2019-04-26T06:50:16.272Z,65.47
2019-04-26T06:53:09.149Z,65.23
2019-04-26T06:55:41.242Z,65.58
2019-04-26T06:58:29.167Z,65.47
2019-04-26T07:01:10.357Z,65.00
2019-04-26T07:03:43.359Z,64.16
2019-04-26T07:06:14.578Z,63.58
2019-04-26T07:08:57.213Z,63.41
2019-04-26T07:12:11.593Z,62.72
2019-04-26T07:14:51.063Z,60.45
2019-04-26T07:17:37.977Z,60.80
2019-04-26T07:20:24.796Z,57.76
2019-04-26T07:23:20.994Z,59.97
2019-04-26T07:26:14.119Z,58.98
2019-04-26T07:29:07.431Z,58.48
2019-04-26T07:31:50.038Z,54.47
2019-04-26T07:34:54.240Z,53.92
2019-04-26T07:37:58.242Z,55.57
2019-04-26T07:40:51.284Z,55.28
2019-04-26T07:43:26.308Z,55.24
2019-04-26T07:46:16.192Z,55.78
2019-04-26T07:48:55.684Z,54.45
2019-04-26T07:51:45.861Z,54.21
2019-04-26T07:54:35.833Z,53.13
2019-04-26T07:57:41.974Z,52.29
2019-04-26T08:00:13.835Z,51.34
2019-04-26T08:02:56.068Z,51.72
2019-04-26T08:05:28.140Z,53.30
2019-04-26T08:07:58.425Z,53.23
2019-04-26T08:10:28.738Z,51.57
2019-04-26T08:13:06.118Z,52.09
2019-04-26T08:15:38.317Z,51.04
2019-04-26T08:18:26.840Z,50.57
2019-04-26T08:21:02.472Z,49.52
2019-04-26T08:23:42.085Z,47.25
2019-04-26T08:26:07.609Z,45.74
2019-04-26T08:28:36.815Z,47.47
2019-04-26T08:31:07.538Z,44.76
2019-04-26T08:33:40.417Z,45.63
2019-04-26T08:36:12.672Z,43.18
2019-04-26T08:38:41.699Z,43.15
2019-04-26T08:41:09.804Z,43.03
2019-04-26T08:43:51.779Z,44.71
2019-04-26T08:46:26.430Z,42.14
2019-04-26T08:49:01.837Z,42.34
2019-04-26T08:51:31.665Z,43.54
2019-04-26T08:54:01.294Z,44.27
2019-04-26T08:56:34.724Z,45.48
2019-04-26T08:59:18.042Z,43.81
2019-04-26T09:01:49.430Z,45.26
2019-04-26T09:04:18.873Z,46.00
2019-04-26T09:06:50.703Z,45.60
2019-04-26T09:09:23.647Z,44.42
2019-04-26T09:11:59.490Z,43.97
2019-04-26T09:14:23.682Z,43.38
2019-04-26T09:16:53.636Z,44.79
2019-04-26T09:19:20.510Z,45.18
2019-04-26T09:21:53.337Z,46.20
2019-04-26T09:24:31.522Z,46.50
2019-04-26T09:27:12.311Z,46.68
2019-04-26T09:29:43.040Z,46.20
2019-04-26T09:32:14.266Z,45.61
2019-04-26T09:34:42.827Z,44.06
2019-04-26T09:37:10.157Z,46.40
2019-04-26T09:39:41.593Z,46.54
2019-04-26T09:42:24.909Z,45.61
2019-04-26T09:45:11.813Z,43.08
2019-04-26T09:47:43.037Z,39.01
2019-04-26T09:50:28.312Z,38.68
2019-04-26T09:52:59.109Z,36.80
2019-04-26T09:55:35.279Z,37.56
2019-04-26T09:57:57.133Z,36.61
2019-04-26T10:00:24.985Z,37.07
2019-04-26T10:02:51.706Z,36.65
2019-04-26T10:05:22.423Z,38.00
2019-04-26T10:07:48.340Z,37.85
2019-04-26T10:10:22.676Z,38.59
2019-04-26T10:12:46.451Z,37.19
2019-04-26T10:15:33.484Z,37.80
2019-04-26T10:18:01.093Z,36.53
2019-04-26T10:20:27.726Z,37.64
2019-04-26T10:22:54.341Z,36.01
2019-04-26T10:25:21.238Z,36.34
2019-04-26T10:27:47.996Z,36.62
2019-04-26T10:30:17.735Z,35.84
2019-04-26T10:32:44.573Z,36.87
2019-04-26T10:35:11.988Z,35.44
2019-04-26T10:38:05.151Z,36.60
2019-04-26T10:40:47.258Z,34.44
2019-04-26T10:43:17.495Z,34.07
2019-04-26T12:31:19.828Z,41.28
2019-04-26T12:33:47.082Z,41.34
2019-04-26T12:36:14.449Z,42.02
2019-04-26T12:38:41.273Z,41.29
2019-04-26T12:41:07.890Z,41.46
2019-04-26T12:43:34.500Z,40.68
2019-04-26T12:46:22.692Z,41.14
2019-04-26T12:48:56.710Z,41.02
2019-04-26T12:51:23.368Z,41.90
2019-04-26T12:53:49.991Z,41.24
2019-04-26T12:56:16.604Z,41.82
2019-04-26T12:58:45.706Z,41.00
2019-04-26T14:31:41.895Z,57.38
2019-04-26T14:34:12.165Z,57.15
2019-04-26T14:36:43.539Z,57.15
2019-04-26T14:39:14.974Z,55.83
2019-04-26T14:41:39.779Z,55.69
2019-04-26T14:44:15.306Z,54.66
2019-04-26T14:46:47.980Z,53.90
2019-04-26T14:49:05.867Z,53.38
2019-04-26T14:51:32.560Z,52.03
2019-04-26T14:54:01.576Z,52.32
2019-04-26T14:56:29.457Z,52.63
2019-04-26T14:58:57.269Z,52.95
2019-04-26T15:01:32.314Z,54.91
2019-04-26T15:04:18.719Z,55.77
2019-04-26T15:06:51.398Z,55.24
2019-04-26T15:09:19.450Z,55.47
2019-04-26T15:11:56.876Z,55.50
2019-04-26T15:14:21.107Z,56.61
2019-04-26T15:16:48.501Z,57.55
2019-04-26T15:19:15.227Z,58.84
2019-04-26T15:21:42.254Z,56.46
2019-04-26T15:24:08.861Z,59.02
2019-04-26T15:26:35.667Z,57.53
2019-04-26T15:29:02.492Z,57.88
2019-04-26T15:31:33.089Z,57.14
2019-04-26T15:33:59.901Z,57.00
2019-04-26T15:36:26.578Z,57.20
2019-04-26T15:38:53.686Z,57.95
2019-04-26T15:41:26.588Z,57.97
2019-04-26T15:43:55.294Z,59.65
2019-04-26T15:46:29.654Z,57.15
2019-04-26T15:49:04.736Z,57.02
2019-04-26T15:51:32.679Z,56.56
2019-04-26T15:53:59.320Z,56.79
2019-04-26T15:56:25.933Z,55.74
2019-04-26T15:58:52.573Z,57.04
2019-04-26T16:01:19.329Z,56.23
2019-04-26T16:03:47.567Z,56.29
2019-04-26T16:06:15.060Z,56.47
2019-04-26T16:08:43.796Z,56.39
2019-04-26T16:11:12.499Z,57.02
2019-04-26T16:13:39.210Z,57.30
2019-04-26T16:16:05.837Z,57.49
2019-04-26T16:18:32.463Z,57.04
2019-04-26T16:21:00.215Z,56.88
2019-04-26T16:23:38.389Z,56.24
2019-04-26T16:25:55.417Z,55.47
2019-04-26T16:28:30.677Z,55.40
2019-04-26T16:31:11.045Z,55.74
2019-04-26T16:33:47.271Z,55.92
2019-04-26T16:36:14.503Z,56.15
2019-04-26T16:38:41.097Z,56.71
2019-04-26T17:25:32.176Z,62.58
2019-04-26T17:28:17.938Z,62.07
2019-04-26T17:30:44.617Z,61.17
2019-04-26T17:33:13.017Z,61.12
2019-04-26T17:35:40.942Z,60.64
2019-04-26T17:38:11.374Z,60.48
2019-04-26T17:40:38.951Z,60.68
2019-04-26T17:43:09.582Z,60.48
2019-04-26T17:45:36.280Z,60.33
2019-04-26T17:48:06.555Z,60.58
2019-04-26T17:50:31.286Z,60.92
2019-04-26T17:52:57.913Z,60.74
2019-04-26T17:55:24.650Z,61.16
2019-04-26T17:57:52.475Z,61.03
2019-04-26T18:00:27.126Z,60.83
2019-04-26T18:02:50.945Z,61.57
2019-04-26T18:05:18.986Z,60.93
2019-04-26T18:07:56.383Z,60.97
2019-04-26T18:10:15.785Z,61.09
2019-04-26T18:12:44.397Z,61.17
2019-04-26T18:15:16.325Z,60.79
2019-04-26T18:17:44.352Z,60.94
2019-04-26T18:20:13.075Z,60.95
2019-04-26T18:22:49.809Z,60.99
2019-04-26T18:25:23.539Z,62.03
2019-04-26T18:27:50.170Z,61.70
2019-04-26T18:30:16.981Z,61.54
2019-04-26T18:32:47.687Z,61.87
2019-04-26T18:35:15.452Z,61.60
2019-04-26T18:37:42.658Z,61.85
2019-04-26T18:40:09.720Z,62.40
2019-04-26T18:42:37.563Z,62.46
2019-04-26T18:45:07.732Z,63.10
2019-04-26T18:47:36.250Z,63.31
2019-04-26T18:50:05.470Z,64.03
2019-04-26T18:52:33.876Z,64.58
2019-04-26T18:55:05.449Z,65.01
2019-04-26T18:57:33.520Z,65.07
2019-04-26T19:00:00.333Z,65.37
2019-04-26T19:02:27.731Z,64.94
2019-04-26T19:04:54.968Z,64.75
2019-04-26T19:07:32.129Z,64.64
2019-04-26T19:10:02.010Z,64.36
2019-04-26T19:12:23.387Z,64.55
2019-04-26T19:14:53.636Z,64.58
2019-04-26T19:17:33.836Z,64.89
2019-04-26T19:20:04.486Z,64.92
2019-04-26T19:22:34.584Z,65.25
2019-04-26T19:25:02.040Z,65.16
2019-04-26T19:27:30.480Z,65.24
2019-04-26T19:29:57.071Z,65.30
2019-04-26T19:32:23.708Z,65.40
2019-04-26T19:34:50.304Z,65.67
2019-04-26T19:37:17.018Z,66.14
2019-04-26T19:39:43.586Z,65.77
2019-04-26T19:42:12.707Z,65.66
2019-04-26T19:44:39.580Z,65.94
2019-04-26T19:47:17.239Z,66.28
2019-04-26T19:50:03.123Z,66.34
2019-04-26T19:52:33.775Z,66.44
2019-04-26T19:55:24.039Z,66.30
2019-04-26T19:57:55.761Z,66.63
2019-04-26T20:00:24.078Z,67.36
2019-04-26T20:02:52.358Z,67.27
2019-04-26T20:05:26.339Z,67.24
2019-04-26T20:07:52.014Z,67.24
2019-04-26T20:10:20.460Z,67.40
2019-04-26T20:12:48.194Z,67.33
2019-04-26T20:15:25.401Z,67.37
2019-04-26T20:17:43.416Z,67.12
2019-04-26T20:20:18.980Z,66.89
2019-04-26T20:22:38.835Z,66.89
2019-04-26T20:25:05.485Z,67.00
2019-04-26T20:27:33.910Z,66.97
2019-04-26T20:30:02.352Z,66.92
2019-04-26T20:32:32.000Z,66.87
2019-04-26T20:35:06.091Z,66.90
2019-04-26T20:37:32.825Z,66.96
2019-04-26T20:40:16.298Z,67.21
2019-04-26T20:42:29.043Z,67.49
2019-04-26T20:44:55.711Z,67.65
2019-04-26T20:47:22.341Z,68.21
2019-04-26T20:49:55.042Z,68.46
2019-04-26T20:52:23.113Z,68.40
2019-04-26T20:54:46.653Z,68.56
2019-04-26T20:57:14.627Z,68.83
2019-04-26T20:59:41.663Z,68.75
2019-04-26T21:02:09.806Z,68.97
2019-04-26T21:04:38.446Z,69.12
2019-04-26T21:07:06.696Z,69.15
2019-04-26T21:09:36.346Z,69.09
2019-04-26T21:12:02.280Z,69.29
2019-04-26T21:14:28.875Z,69.45
2019-04-26T21:16:55.507Z,69.28
2019-04-26T21:19:22.135Z,69.90
2019-04-26T21:21:50.445Z,71.04
2019-04-26T21:24:19.595Z,71.82
2019-04-26T21:26:54.660Z,73.45
2019-04-26T21:29:34.887Z,74.50
2019-04-26T21:32:16.469Z,75.77
2019-04-26T21:34:50.481Z,76.48
2019-04-26T21:37:22.151Z,76.77
2019-04-26T21:39:50.680Z,77.49
2019-04-26T21:42:20.823Z,78.05
2019-04-26T21:44:51.537Z,77.84
2019-04-26T21:47:14.446Z,77.08
2019-04-26T21:49:42.927Z,76.86
2019-04-26T21:52:09.645Z,76.58
2019-04-26T21:54:36.236Z,76.89
2019-04-26T21:57:03.787Z,77.47
2019-04-26T21:59:35.179Z,76.63
2019-04-26T22:01:59.468Z,76.84
2019-04-26T22:04:28.926Z,77.04
2019-04-26T22:06:55.651Z,77.47
2019-04-26T22:09:28.550Z,76.35
2019-04-26T22:11:56.516Z,76.94
2019-04-26T22:14:25.182Z,78.14
2019-04-26T22:17:01.996Z,75.08
2019-04-26T22:19:38.924Z,74.70
2019-04-26T22:22:07.322Z,77.82
2019-04-26T22:24:36.863Z,78.82
2019-04-26T22:27:03.941Z,72.69
2019-04-26T22:29:30.742Z,73.50
2019-04-26T22:31:57.328Z,73.00
2019-04-26T22:34:23.952Z,72.58
2019-04-26T22:36:50.549Z,73.31
2019-04-26T22:39:18.194Z,74.15
2019-04-26T22:41:45.080Z,74.08
2019-04-26T22:44:13.937Z,71.64
2019-04-26T22:46:51.712Z,71.79
2019-04-26T22:49:18.389Z,71.93
2019-04-26T22:51:45.009Z,73.52
2019-04-26T22:54:15.393Z,73.00
2019-04-26T22:56:43.814Z,73.35
2019-04-26T22:59:13.890Z,72.42
2019-04-26T23:01:44.764Z,73.38
2019-04-26T23:04:09.992Z,74.07
2019-04-26T23:06:36.613Z,73.83
2019-04-26T23:09:07.330Z,75.07
2019-04-26T23:11:39.441Z,75.53
2019-04-26T23:14:24.788Z,76.18
2019-04-26T23:17:10.799Z,76.11
2019-04-26T23:19:43.620Z,74.87
2019-04-26T23:22:12.856Z,76.39
2019-04-26T23:24:39.630Z,76.31
2019-04-26T23:27:07.685Z,76.51
2019-04-26T23:29:34.274Z,74.68
2019-04-26T23:32:00.905Z,75.26
2019-04-26T23:34:27.566Z,75.25
2019-04-26T23:36:54.214Z,75.16
2019-04-26T23:39:20.818Z,75.97
2019-04-26T23:41:47.500Z,75.61
2019-04-26T23:44:14.125Z,75.20
2019-04-26T23:46:40.752Z,74.23
2019-04-26T23:49:08.274Z,74.21
2019-04-26T23:51:38.266Z,75.77
2019-04-26T23:54:03.452Z,74.72
2019-04-26T23:56:30.102Z,74.82
2019-04-26T23:58:56.731Z,76.07
